Sturgeon Bay, WI

5:38 AM CDT on August 27, 2016 (GMT -0500)
Leif Everson Observatory | | Change Station

Elev 636 ft 44.83 °N, 87.34 °W | Updated 5 minutes ago

Light Rain
Light Rain
61.5 °F
Feels Like 61.5 °F
N
0.0
Wind Variable Wind from South
Gusts 0.0 mph

Today
High -- | Low -- °F
--% Chance of Precip.
Yesterday
High -- | Low -- °F
Precip. -- in
Pressure 30.22 in
Visibility 10.0 miles
Clouds Overcast 8000 ft
Dew Point 62 °F
Humidity 100%
Rainfall 0.00 in
Snow Depth Not available.
6:06 AM 7:34 PM
Waning Crescent, 25% visible
METAR KSUE 270956Z AUTO 28003KT 10SM -RA OVC080 17/17 A3017 RMK AO2 RAB44 SLP231 P0000 T01720167
Pressure 30.22 in
Visibility 10.0 miles
Clouds Overcast 8000 ft
Dew Point 62 °F
Humidity 100%
Rainfall 0.00 in
Snow Depth Not available.
6:06 AM 7:34 PM
Waning Crescent, 25% visible
METAR KSUE 270956Z AUTO 28003KT 10SM -RA OVC080 17/17 A3017 RMK AO2 RAB44 SLP231 P0000 T01720167

10-Day Weather Forecast

Almanac

Astronomy

Aug. 27, 2016 Rise Set
Actual Time
Civil Twilight
Nautical Twilight
Astronomical Twilight
Moon
Length of Visible Light
Length of Day
Tomorrow will be .
, % of the Moon is Illuminated

Today's Extremes

State Highs State Lows

Community

WunderPhotos

Upload Photos

1,935,321 photos uploaded!

WunderBlog® & News

Nearby

Air Quality

  Air Quality AQ Index Pollutant
Not available.

Snow Depth

Station Depth Elevation

Earthquake Activity

City Distance Mag. Time & Date
Minimum magnitude displayed is 2.5.

Coastal Water Temperatures

Place Temperature

Stations

Nearby Weather Stations

Station Location Temp. Windchill Dew Point Humidity Wind Precip. Elev Updated Type
                   

Watches & Warnings

There are currently no watches in effect.